createdAt,value
2019-01-27T00:02:18.260Z,94.92
2019-01-27T00:04:44.088Z,95.17
2019-01-27T00:07:10.136Z,95.31
2019-01-27T00:09:35.955Z,95.15
2019-01-27T00:12:02.226Z,94.84
2019-01-27T00:14:28.062Z,94.71
2019-01-27T00:16:54.181Z,94.61
2019-01-27T00:19:20.017Z,94.55
2019-01-27T00:21:46.104Z,94.44
2019-01-27T00:24:12.020Z,94.36
2019-01-27T00:26:37.888Z,94.27
2019-01-27T00:29:04.205Z,94.51
2019-01-27T00:31:30.434Z,94.82
2019-01-27T00:33:56.250Z,95.08
2019-01-27T00:36:22.088Z,95.27
2019-01-27T00:38:48.349Z,95.43
2019-01-27T00:41:14.297Z,95.35
2019-01-27T00:43:40.490Z,95.38
2019-01-27T00:46:06.640Z,95.26
2019-01-27T00:48:32.443Z,95.33
2019-01-27T00:50:58.650Z,95.11
2019-01-27T00:53:24.488Z,94.87
2019-01-27T00:55:50.308Z,94.84
2019-01-27T00:58:16.128Z,94.94
2019-01-27T01:00:42.251Z,94.88
2019-01-27T01:03:08.179Z,95.11
2019-01-27T01:05:34.086Z,95.27
2019-01-27T01:08:00.266Z,95.49
2019-01-27T01:10:26.102Z,95.56
2019-01-27T01:12:52.315Z,95.39
2019-01-27T01:15:18.350Z,95.59
2019-01-27T01:17:44.697Z,95.34
2019-01-27T01:22:49.751Z,95.37
2019-01-27T01:25:23.704Z,95.57
2019-01-27T01:27:50.136Z,95.62
2019-01-27T01:30:18.680Z,95.57
2019-01-27T01:32:45.083Z,95.69
2019-01-27T01:35:11.232Z,95.93
2019-01-27T01:37:37.161Z,95.74
2019-01-27T01:40:06.773Z,95.76
2019-01-27T01:42:33.019Z,95.69
2019-01-27T01:44:59.110Z,95.40
2019-01-27T01:47:25.242Z,95.18
2019-01-27T01:49:51.060Z,95.36
2019-01-27T01:52:17.178Z,95.51
2019-01-27T01:54:42.973Z,95.54
2019-01-27T01:57:08.842Z,95.42
2019-01-27T01:59:34.672Z,95.33
2019-01-27T02:02:00.508Z,95.06
2019-01-27T02:05:00.872Z,94.78
2019-01-27T02:07:26.723Z,94.56
2019-01-27T02:09:52.782Z,94.52
2019-01-27T02:12:18.619Z,94.22
2019-01-27T02:14:44.814Z,94.27
2019-01-27T02:17:10.668Z,94.25
2019-01-27T02:19:36.570Z,94.27
2019-01-27T02:22:02.582Z,94.23
2019-01-27T02:24:28.745Z,94.22
2019-01-27T02:26:54.592Z,94.30
2019-01-27T02:29:20.718Z,94.59
2019-01-27T02:31:46.549Z,94.48
2019-01-27T02:34:12.689Z,94.35
2019-01-27T02:36:38.568Z,94.44
2019-01-27T02:39:06.435Z,94.52
2019-01-27T02:41:32.257Z,94.54
2019-01-27T02:43:58.109Z,94.43
2019-01-27T02:46:23.928Z,94.27
2019-01-27T02:48:50.072Z,94.45
2019-01-27T02:51:15.891Z,94.61
2019-01-27T02:53:41.976Z,94.77
2019-01-27T02:56:07.828Z,94.85
2019-01-27T02:58:33.912Z,94.87
2019-01-27T03:01:00.112Z,95.01
2019-01-27T03:03:25.953Z,94.76
2019-01-27T03:05:53.791Z,94.64
2019-01-27T03:08:19.926Z,94.69
2019-01-27T03:10:45.885Z,94.83
2019-01-27T03:13:11.692Z,94.78
2019-01-27T03:15:37.505Z,94.81
2019-01-27T03:18:03.517Z,94.65
2019-01-27T03:20:29.650Z,94.79
2019-01-27T03:22:55.524Z,94.97
2019-01-27T03:25:21.679Z,95.12
2019-01-27T03:27:47.767Z,94.93
2019-01-27T03:30:20.782Z,94.88
2019-01-27T03:32:46.688Z,94.75
2019-01-27T03:35:12.690Z,94.81
2019-01-27T03:37:38.570Z,94.71
2019-01-27T03:40:08.442Z,94.86
2019-01-27T03:42:34.497Z,94.91
2019-01-27T03:45:00.333Z,94.76
2019-01-27T03:47:26.148Z,94.82
2019-01-27T03:49:52.006Z,94.84
2019-01-27T03:52:18.109Z,95.07
2019-01-27T03:54:44.196Z,95.17
2019-01-27T03:57:10.342Z,95.20
2019-01-27T03:59:36.187Z,95.32
2019-01-27T04:02:02.294Z,95.31
2019-01-27T04:04:28.129Z,95.41
2019-01-27T04:06:54.058Z,95.71
2019-01-27T04:09:19.891Z,95.60
2019-01-27T04:11:45.742Z,95.59
2019-01-27T04:14:11.569Z,95.66
2019-01-27T04:16:37.412Z,95.72
2019-01-27T04:19:03.423Z,95.76
2019-01-27T04:21:29.641Z,95.96
2019-01-27T04:23:55.536Z,96.16
2019-01-27T04:26:21.626Z,96.25
2019-01-27T04:28:47.437Z,95.84
2019-01-27T04:31:16.000Z,95.67
2019-01-27T04:33:41.837Z,95.32
2019-01-27T04:36:11.146Z,95.18
2019-01-27T04:38:37.287Z,95.23
2019-01-27T04:41:06.041Z,94.83
2019-01-27T04:43:32.171Z,94.41
2019-01-27T04:46:00.956Z,94.17
2019-01-27T04:48:26.865Z,94.14
2019-01-27T04:50:55.724Z,93.75
2019-01-27T04:53:21.542Z,93.61
2019-01-27T04:55:47.376Z,93.45
2019-01-27T04:58:13.477Z,93.18
2019-01-27T05:00:39.536Z,93.53
2019-01-27T05:03:26.818Z,93.85
2019-01-27T05:05:52.656Z,94.28
2019-01-27T05:08:18.464Z,94.78
2019-01-27T05:10:44.572Z,95.35
2019-01-27T05:13:10.384Z,95.42
2019-01-27T05:15:36.237Z,95.54
2019-01-27T05:18:02.244Z,95.72
2019-01-27T05:20:28.080Z,96.34
2019-01-27T05:22:54.309Z,96.53
2019-01-27T05:25:20.162Z,96.53
2019-01-27T05:27:46.248Z,96.29
2019-01-27T05:30:23.503Z,96.33
2019-01-27T05:32:49.793Z,96.39
2019-01-27T05:35:15.658Z,95.51
2019-01-27T05:37:41.801Z,95.70
2019-01-27T05:40:16.525Z,95.82
2019-01-27T05:42:42.360Z,95.84
2019-01-27T05:45:10.881Z,95.16
2019-01-27T05:47:36.820Z,95.31
2019-01-27T05:50:08.765Z,95.12
2019-01-27T05:52:34.847Z,95.10
2019-01-27T05:55:00.697Z,94.85
2019-01-27T05:57:26.566Z,94.73
2019-01-27T05:59:52.400Z,94.92
2019-01-27T06:02:19.219Z,94.85
2019-01-27T06:04:45.072Z,94.95
2019-01-27T06:07:10.906Z,95.31
2019-01-27T06:09:36.737Z,95.82
2019-01-27T06:12:02.647Z,95.92
2019-01-27T06:14:28.502Z,96.11
2019-01-27T06:16:54.425Z,95.86
2019-01-27T06:19:20.267Z,96.00
2019-01-27T06:21:46.115Z,96.13
2019-01-27T06:24:12.261Z,95.94
2019-01-27T06:26:38.117Z,95.68
2019-01-27T06:29:04.058Z,95.38
2019-01-27T06:31:29.913Z,95.36
2019-01-27T06:33:56.236Z,95.22
2019-01-27T06:36:22.351Z,94.87
2019-01-27T06:38:48.165Z,94.77
2019-01-27T06:41:14.018Z,94.78
2019-01-27T06:43:39.829Z,94.75
2019-01-27T06:46:05.949Z,94.65
2019-01-27T06:48:32.042Z,94.67
2019-01-27T06:50:58.173Z,94.55
2019-01-27T06:53:23.977Z,94.36
2019-01-27T06:55:49.802Z,94.31
2019-01-27T06:58:16.858Z,94.30
2019-01-27T07:00:50.389Z,94.36
2019-01-27T07:03:21.244Z,94.40
2019-01-27T07:05:58.064Z,94.70
2019-01-27T07:08:25.784Z,94.86
2019-01-27T07:10:56.600Z,95.15
2019-01-27T07:13:33.733Z,94.90
2019-01-27T07:16:13.504Z,94.88
2019-01-27T07:18:50.449Z,95.10
2019-01-27T07:21:30.284Z,95.20
2019-01-27T07:24:07.270Z,95.09
2019-01-27T07:26:51.707Z,95.12
2019-01-27T07:29:25.343Z,95.22
2019-01-27T07:32:02.808Z,94.76
2019-01-27T07:34:30.596Z,94.52
2019-01-27T07:37:15.157Z,94.24
2019-01-27T07:39:42.881Z,93.70
2019-01-27T07:42:28.746Z,93.52
2019-01-27T07:44:56.517Z,92.59
2019-01-27T07:47:24.562Z,92.11
2019-01-27T07:50:07.923Z,92.03
2019-01-27T07:52:35.675Z,92.26
2019-01-27T07:55:12.903Z,88.95
2019-01-27T07:57:46.943Z,84.78
2019-01-27T08:00:20.842Z,84.60
2019-01-27T08:02:48.586Z,85.58
2019-01-27T08:05:16.410Z,87.03
2019-01-27T08:07:49.940Z,87.39
2019-01-27T08:10:18.045Z,87.43
2019-01-27T08:12:51.889Z,87.54
2019-01-27T08:15:22.425Z,86.62
2019-01-27T08:17:52.820Z,83.89
2019-01-27T08:20:20.635Z,81.37
2019-01-27T08:22:51.399Z,79.28
2019-01-27T08:25:22.232Z,78.50
2019-01-27T08:30:52.620Z,77.14
2019-01-27T08:33:29.478Z,78.92
2019-01-27T08:38:48.443Z,81.97
2019-01-27T08:41:22.475Z,81.82
2019-01-27T08:43:50.214Z,82.11
2019-01-27T08:46:17.949Z,82.41
2019-01-27T08:48:44.036Z,81.67
2019-01-27T08:51:10.167Z,79.36
2019-01-27T08:53:35.970Z,75.28
2019-01-27T08:56:01.804Z,72.16
2019-01-27T08:58:27.696Z,72.23
2019-01-27T09:00:55.681Z,72.23
2019-01-27T09:03:23.666Z,73.20
2019-01-27T09:05:53.927Z,73.02
2019-01-27T09:08:37.219Z,74.52
2019-01-27T09:11:08.185Z,72.97
2019-01-27T09:13:47.952Z,71.95
2019-01-27T09:16:25.036Z,72.38
2019-01-27T09:18:58.774Z,72.80
2019-01-27T09:21:26.514Z,74.14
2019-01-27T09:23:57.118Z,75.47
2019-01-27T09:26:25.182Z,78.29
2019-01-27T09:29:08.389Z,79.61
2019-01-27T09:31:39.435Z,79.42
2019-01-27T09:34:16.038Z,80.07
2019-01-27T09:36:46.816Z,77.69
2019-01-27T09:39:14.549Z,73.79
2019-01-27T09:41:48.737Z,73.49
2019-01-27T09:44:16.474Z,74.15
2019-01-27T09:46:46.973Z,75.66
2019-01-27T09:49:14.997Z,73.05
2019-01-27T09:51:45.970Z,74.87
2019-01-27T09:54:19.770Z,76.63
2019-01-27T09:56:47.887Z,78.16
2019-01-27T09:59:15.635Z,79.39
2019-01-27T10:01:46.412Z,80.59
2019-01-27T10:04:17.427Z,80.69
2019-01-27T10:06:47.892Z,81.59
2019-01-27T10:09:15.664Z,81.80
2019-01-27T10:11:49.539Z,80.28
2019-01-27T10:14:33.864Z,79.00
2019-01-27T10:17:05.064Z,78.61
2019-01-27T10:19:32.775Z,78.08
2019-01-27T10:22:06.660Z,80.07
2019-01-27T10:24:49.634Z,81.71
2019-01-27T10:27:17.334Z,82.62
2019-01-27T10:30:02.092Z,83.29
2019-01-27T10:32:44.857Z,83.23
2019-01-27T10:35:12.913Z,83.69
2019-01-27T10:37:46.521Z,84.03
2019-01-27T10:40:14.646Z,83.38
2019-01-27T10:42:48.632Z,84.86
2019-01-27T10:45:16.501Z,86.33
2019-01-27T10:47:44.220Z,87.58
2019-01-27T10:53:02.890Z,92.27
2019-01-27T10:55:45.815Z,93.78
2019-01-27T10:58:13.544Z,92.36
2019-01-27T11:00:41.285Z,90.84
2019-01-27T11:03:15.082Z,86.59
2019-01-27T11:05:44.504Z,82.96
2019-01-27T11:08:12.345Z,81.49
2019-01-27T11:10:41.438Z,77.48
2019-01-27T11:13:09.438Z,78.14
2019-01-27T11:15:37.213Z,75.90
2019-01-27T11:18:05.342Z,72.70
2019-01-27T11:20:39.752Z,72.32
2019-01-27T11:23:05.939Z,71.02
2019-01-27T11:25:33.973Z,69.87
2019-01-27T11:28:01.735Z,74.67
2019-01-27T11:30:29.741Z,77.24
2019-01-27T11:33:00.596Z,79.32
2019-01-27T11:35:28.339Z,81.49
2019-01-27T11:37:56.077Z,80.74
2019-01-27T11:43:25.981Z,80.52
2019-01-27T11:46:05.747Z,80.04
2019-01-27T11:48:39.572Z,75.22
2019-01-27T11:51:10.587Z,71.68
2019-01-27T11:53:36.428Z,74.90
2019-01-27T11:56:05.578Z,76.72
2019-01-27T11:58:31.393Z,79.07
2019-01-27T12:00:57.763Z,81.50
2019-01-27T12:03:23.593Z,82.84
2019-01-27T12:05:49.437Z,83.48
2019-01-27T12:08:15.301Z,84.49
2019-01-27T12:10:41.439Z,85.85
2019-01-27T12:13:10.326Z,85.28
2019-01-27T12:15:36.651Z,86.44
2019-01-27T12:18:05.483Z,86.24
2019-01-27T12:20:31.328Z,85.52
2019-01-27T12:23:00.196Z,84.57
2019-01-27T12:25:26.331Z,82.90
2019-01-27T12:27:55.166Z,80.40
2019-01-27T12:30:21.306Z,78.66
2019-01-27T12:32:48.980Z,76.19
2019-01-27T12:35:14.805Z,76.81
2019-01-27T12:37:40.743Z,77.26
2019-01-27T12:40:10.253Z,76.44
2019-01-27T12:42:36.355Z,75.86
2019-01-27T12:45:03.595Z,77.72
2019-01-27T12:47:29.406Z,79.31
2019-01-27T12:49:55.540Z,80.58
2019-01-27T12:52:21.360Z,80.66
2019-01-27T12:54:50.309Z,81.55
2019-01-27T12:57:16.127Z,81.75
2019-01-27T12:59:45.237Z,81.54
2019-01-27T13:02:11.074Z,80.33
2019-01-27T13:04:39.682Z,81.00
2019-01-27T13:07:05.519Z,80.74
2019-01-27T13:09:33.867Z,78.45
2019-01-27T13:11:59.715Z,79.35
2019-01-27T13:14:25.553Z,79.95
2019-01-27T13:16:51.652Z,80.21
2019-01-27T13:19:17.501Z,79.90
2019-01-27T13:21:46.373Z,80.65
2019-01-27T13:24:12.206Z,80.53
2019-01-27T13:26:41.823Z,81.10
2019-01-27T13:29:07.901Z,81.14
2019-01-27T13:31:36.753Z,81.42
2019-01-27T13:34:03.181Z,81.75
2019-01-27T13:36:53.925Z,80.75
2019-01-27T13:39:19.781Z,79.78
2019-01-27T13:41:45.906Z,80.30
2019-01-27T13:44:12.112Z,79.95
2019-01-27T13:46:38.342Z,76.68
2019-01-27T13:49:04.159Z,76.09
2019-01-27T13:51:29.974Z,74.78
2019-01-27T13:53:55.822Z,75.50
2019-01-27T13:56:21.630Z,76.82
2019-01-27T13:58:47.582Z,75.65
2019-01-27T14:01:13.707Z,74.69
2019-01-27T14:03:39.759Z,72.75
2019-01-27T14:06:06.006Z,72.25
2019-01-27T14:08:32.231Z,73.93
2019-01-27T14:10:58.038Z,74.55
2019-01-27T14:13:23.888Z,75.80
2019-01-27T14:15:49.692Z,76.72
2019-01-27T14:18:15.785Z,76.77
2019-01-27T14:20:41.876Z,76.36
2019-01-27T14:23:07.695Z,77.30
2019-01-27T14:25:33.624Z,76.39
2019-01-27T14:27:59.476Z,76.93
2019-01-27T14:30:41.155Z,77.56
2019-01-27T14:33:07.508Z,77.18
2019-01-27T14:35:33.758Z,76.94
2019-01-27T14:37:59.575Z,76.73
2019-01-27T14:40:27.956Z,75.92
2019-01-27T14:42:53.792Z,76.00
2019-01-27T14:45:22.546Z,75.19
2019-01-27T14:47:52.160Z,75.26
2019-01-27T14:50:21.179Z,74.93
2019-01-27T14:52:47.382Z,75.08
2019-01-27T14:55:15.600Z,75.83
2019-01-27T14:57:41.457Z,77.04
2019-01-27T15:00:23.229Z,77.04
2019-01-27T15:02:49.443Z,77.01
2019-01-27T15:05:15.464Z,77.32
2019-01-27T15:07:41.397Z,76.85
2019-01-27T15:10:16.597Z,77.13
2019-01-27T15:12:42.512Z,77.10
2019-01-27T15:15:14.316Z,77.25
2019-01-27T15:17:40.613Z,77.99
2019-01-27T15:20:10.262Z,78.16
2019-01-27T15:22:36.106Z,78.66
2019-01-27T15:25:02.028Z,78.91
2019-01-27T15:27:27.885Z,80.04
2019-01-27T15:29:53.830Z,80.29
2019-01-27T15:32:19.674Z,81.09
2019-01-27T15:34:45.501Z,81.59
2019-01-27T15:37:11.353Z,82.54
2019-01-27T15:39:37.211Z,83.35
2019-01-27T15:42:03.263Z,83.23
2019-01-27T15:44:29.103Z,83.67
2019-01-27T15:46:54.918Z,84.69
2019-01-27T15:49:20.772Z,84.83
2019-01-27T15:51:46.582Z,84.65
2019-01-27T15:54:12.420Z,84.37
2019-01-27T15:56:38.511Z,85.06
2019-01-27T15:59:04.347Z,85.20
2019-01-27T16:01:30.598Z,84.98
2019-01-27T16:03:59.457Z,84.67
2019-01-27T16:06:25.704Z,84.80
2019-01-27T16:08:51.550Z,84.95
2019-01-27T16:11:17.631Z,85.20
2019-01-27T16:13:43.474Z,85.10
2019-01-27T16:16:09.302Z,86.21
2019-01-27T16:18:35.388Z,86.21
2019-01-27T16:21:01.222Z,87.15
2019-01-27T16:23:32.338Z,87.28
2019-01-27T16:25:59.280Z,87.99
2019-01-27T16:28:25.132Z,87.72
2019-01-27T16:31:05.508Z,87.68
2019-01-27T16:33:33.323Z,87.61
2019-01-27T16:35:59.451Z,88.02
2019-01-27T16:38:25.474Z,88.32
2019-01-27T16:40:51.281Z,88.67
2019-01-27T16:43:17.129Z,88.93
2019-01-27T16:45:42.957Z,89.02
2019-01-27T16:48:08.807Z,89.38
2019-01-27T16:50:34.642Z,89.50
2019-01-27T16:53:00.752Z,90.14
2019-01-27T16:55:26.898Z,90.60
2019-01-27T16:57:52.845Z,90.83
2019-01-27T17:00:29.531Z,91.51
2019-01-27T17:02:55.388Z,91.94
2019-01-27T17:05:21.398Z,92.25
2019-01-27T17:07:47.234Z,92.36
2019-01-27T17:10:19.061Z,92.44
2019-01-27T17:12:44.917Z,92.50
2019-01-27T17:15:11.958Z,92.56
2019-01-27T17:17:37.766Z,92.81
2019-01-27T17:20:12.763Z,93.27
2019-01-27T17:22:38.979Z,93.42
2019-01-27T17:25:07.517Z,93.89
2019-01-27T17:27:33.645Z,93.96
2019-01-27T17:29:59.610Z,93.91
2019-01-27T17:32:25.437Z,94.17
2019-01-27T17:34:51.553Z,94.38
2019-01-27T17:37:17.657Z,94.60
2019-01-27T17:39:43.484Z,95.00
2019-01-27T17:42:09.391Z,95.18
2019-01-27T17:44:35.221Z,95.37
2019-01-27T17:47:01.062Z,95.64
2019-01-27T17:49:26.896Z,95.51
2019-01-27T17:51:52.896Z,95.55
2019-01-27T17:54:18.761Z,95.90
2019-01-27T17:56:46.515Z,95.90
2019-01-27T17:59:14.443Z,96.27
2019-01-27T18:01:59.117Z,96.00
2019-01-27T18:04:26.834Z,96.17
2019-01-27T18:06:54.585Z,96.01
2019-01-27T18:09:25.385Z,96.08
2019-01-27T18:11:55.958Z,95.82
2019-01-27T18:14:23.674Z,96.21
2019-01-27T18:16:49.822Z,96.04
2019-01-27T18:19:15.952Z,96.67
2019-01-27T18:21:41.820Z,97.51
2019-01-27T18:24:07.630Z,97.98
2019-01-27T18:26:33.715Z,98.67
2019-01-27T18:28:59.663Z,98.62
2019-01-27T18:31:25.615Z,98.95
2019-01-27T18:33:51.897Z,99.02
2019-01-27T18:36:17.726Z,99.50
2019-01-27T18:38:43.557Z,99.37
2019-01-27T18:41:09.566Z,99.45
2019-01-27T18:43:35.660Z,99.55
2019-01-27T18:46:01.744Z,99.49
2019-01-27T18:48:27.594Z,99.74
2019-01-27T18:50:53.815Z,100.00
2019-01-27T18:53:24.678Z,100.00
2019-01-27T18:55:52.421Z,100.00
2019-01-27T18:58:29.722Z,100.00
2019-01-27T19:00:57.576Z,100.00
2019-01-27T19:03:28.670Z,100.00
2019-01-27T19:06:05.240Z,100.00
2019-01-27T19:08:35.784Z,100.00
2019-01-27T19:11:03.528Z,100.00
2019-01-27T19:13:34.081Z,100.00
2019-01-27T19:16:14.510Z,100.00
2019-01-27T19:18:57.197Z,100.00
2019-01-27T19:21:31.124Z,100.00
2019-01-27T19:23:58.868Z,100.00
2019-01-27T19:26:29.913Z,100.00
2019-01-27T19:29:00.200Z,100.00
2019-01-27T19:31:27.914Z,100.00
2019-01-27T19:33:55.911Z,100.00
2019-01-27T19:36:23.966Z,100.00
2019-01-27T19:39:08.474Z,100.00
2019-01-27T19:41:38.757Z,100.00
2019-01-27T19:44:06.726Z,100.00
2019-01-27T19:46:43.586Z,99.04
2019-01-27T19:49:17.401Z,98.50
2019-01-27T19:51:45.438Z,98.94
2019-01-27T19:54:22.709Z,99.46
2019-01-27T19:56:53.482Z,99.30
2019-01-27T19:59:21.478Z,99.73
2019-01-27T20:01:55.042Z,99.67
2019-01-27T20:04:32.131Z,99.97
2019-01-27T20:07:08.919Z,100.00
2019-01-27T20:09:53.323Z,100.00
2019-01-27T20:12:21.357Z,100.00
2019-01-27T20:14:55.124Z,100.00
2019-01-27T20:17:34.720Z,100.00
2019-01-27T20:20:08.759Z,100.00
2019-01-27T20:22:43.433Z,100.00
2019-01-27T20:25:27.929Z,100.00
2019-01-27T20:27:55.668Z,100.00
2019-01-27T20:30:26.182Z,100.00
2019-01-27T20:33:09.051Z,100.00
2019-01-27T20:35:37.069Z,100.00
2019-01-27T20:38:05.134Z,100.00
2019-01-27T20:40:35.387Z,100.00
2019-01-27T20:43:12.240Z,100.00
2019-01-27T20:45:40.277Z,100.00
2019-01-27T20:48:20.197Z,100.00
2019-01-27T20:50:48.176Z,100.00
2019-01-27T20:53:22.093Z,100.00
2019-01-27T20:56:05.331Z,100.00
2019-01-27T20:58:33.062Z,100.00
2019-01-27T21:03:45.892Z,100.00
2019-01-27T21:06:22.396Z,100.00
2019-01-27T21:08:50.231Z,100.00
2019-01-27T21:11:18.242Z,100.00
2019-01-27T21:13:54.917Z,100.00
2019-01-27T21:16:25.671Z,100.00
2019-01-27T21:18:53.695Z,100.00
2019-01-27T21:21:19.514Z,100.00
2019-01-27T21:23:45.608Z,100.00
2019-01-27T21:26:11.442Z,100.00
2019-01-27T21:28:37.335Z,100.00
2019-01-27T21:31:03.632Z,100.00
2019-01-27T21:33:29.464Z,100.00
2019-01-27T21:35:55.418Z,100.00
2019-01-27T21:38:21.269Z,100.00
2019-01-27T21:40:47.403Z,100.00
2019-01-27T21:43:13.297Z,100.00
2019-01-27T21:45:39.389Z,100.00
2019-01-27T21:48:05.227Z,100.00
2019-01-27T21:50:31.345Z,100.00
2019-01-27T21:52:57.207Z,100.00
2019-01-27T21:55:23.018Z,100.00
2019-01-27T21:57:48.863Z,100.00
2019-01-27T22:00:17.865Z,100.00
2019-01-27T22:02:43.713Z,100.00
2019-01-27T22:05:09.692Z,100.00
2019-01-27T22:07:35.532Z,100.00
2019-01-27T22:10:01.474Z,100.00
2019-01-27T22:12:27.348Z,100.00
2019-01-27T22:14:53.211Z,100.00
2019-01-27T22:17:19.028Z,100.00
2019-01-27T22:19:45.422Z,100.00
2019-01-27T22:22:11.259Z,100.00
2019-01-27T22:24:37.367Z,100.00
2019-01-27T22:27:03.491Z,100.00
2019-01-27T22:29:29.297Z,100.00
2019-01-27T22:31:55.190Z,99.88
2019-01-27T22:34:21.005Z,99.14
2019-01-27T22:36:50.009Z,98.24
2019-01-27T22:39:15.842Z,98.38
2019-01-27T22:41:41.951Z,98.28
2019-01-27T22:44:07.753Z,98.02
2019-01-27T22:46:33.725Z,98.21
2019-01-27T22:49:02.752Z,98.80
2019-01-27T22:51:28.566Z,99.08
2019-01-27T22:53:57.805Z,98.03
2019-01-27T22:56:23.628Z,98.22
2019-01-27T22:58:49.498Z,98.35
2019-01-27T23:01:16.249Z,98.83
2019-01-27T23:03:44.383Z,99.69
2019-01-27T23:06:10.241Z,100.00
2019-01-27T23:08:41.709Z,100.00
2019-01-27T23:11:07.840Z,100.00
2019-01-27T23:13:33.698Z,100.00
2019-01-27T23:15:59.515Z,100.00
2019-01-27T23:18:25.658Z,100.00
2019-01-27T23:20:51.898Z,100.00
2019-01-27T23:23:17.705Z,100.00
2019-01-27T23:25:46.704Z,100.00
2019-01-27T23:28:12.556Z,100.00
2019-01-27T23:30:41.219Z,100.00
2019-01-27T23:33:07.457Z,100.00
2019-01-27T23:35:36.424Z,99.25
2019-01-27T23:38:02.338Z,99.01
2019-01-27T23:40:30.956Z,98.90
2019-01-27T23:42:56.782Z,97.97
2019-01-27T23:45:25.660Z,97.97
2019-01-27T23:47:51.753Z,98.02
2019-01-27T23:50:20.429Z,98.57
2019-01-27T23:52:46.559Z,99.00
2019-01-27T23:55:12.520Z,98.77
2019-01-27T23:57:38.341Z,98.90
